Time;durP1;ratioP1;P1;durP2;ratioP2;P2;SDS_P1;SDS_P2;PMS_P1;PMS_P2;Temp;Humidity;BMP_temperature;BMP_pressure;BME280_temperature;BME280_humidity;BME280_pressure;Samples;Min_cycle;Max_cycle;Signal;HPM_P1;HPM_P2
2021/03/22 00:00:19;;;;;;;17.70;4.93;;;;;;;3.95;100.00;102437.91;5101316;28;20048;-62
2021/03/22 00:02:45;;;;;;;19.63;4.53;;;;;;;3.94;100.00;102447.66;5102618;28;20054;-62
2021/03/22 00:05:12;;;;;;;15.50;3.95;;;;;;;3.89;100.00;102446.09;5101281;28;20039;-61
2021/03/22 00:07:38;;;;;;;20.45;4.43;;;;;;;3.88;100.00;102447.03;5101679;28;20039;-61
2021/03/22 00:10:05;;;;;;;14.82;4.10;;;;;;;3.83;100.00;102449.84;5101379;28;20059;-62
2021/03/22 00:12:31;;;;;;;13.48;4.03;;;;;;;3.73;100.00;102449.28;5100217;28;20497;-61
2021/03/22 00:14:57;;;;;;;16.50;4.10;;;;;;;3.80;100.00;102448.16;5101854;28;20051;-62
2021/03/22 00:17:24;;;;;;;18.35;4.20;;;;;;;3.83;100.00;102439.22;5100699;28;20392;-63
2021/03/22 00:19:50;;;;;;;20.63;4.80;;;;;;;3.70;100.00;102436.09;5101817;28;20402;-62
2021/03/22 00:22:16;;;;;;;28.90;5.05;;;;;;;3.74;100.00;102450.16;5099551;28;20040;-62
2021/03/22 00:24:42;;;;;;;20.75;5.03;;;;;;;3.74;100.00;102451.03;5101029;28;20047;-62
2021/03/22 00:27:08;;;;;;;20.85;5.10;;;;;;;3.75;100.00;102447.44;5100456;28;20495;-63
2021/03/22 00:29:34;;;;;;;18.60;4.47;;;;;;;3.81;100.00;102447.25;5101549;28;20109;-61
2021/03/22 00:32:00;;;;;;;25.38;5.13;;;;;;;3.87;100.00;102438.16;5101156;28;20480;-62
2021/03/22 00:34:27;;;;;;;21.05;5.32;;;;;;;3.97;100.00;102438.72;5100956;28;20044;-61
2021/03/22 00:36:54;;;;;;;18.23;4.75;;;;;;;3.88;100.00;102434.56;5101688;28;20048;-62
2021/03/22 00:39:19;;;;;;;17.33;4.78;;;;;;;3.78;100.00;102438.47;5098264;28;20231;-62
2021/03/22 00:41:46;;;;;;;21.33;5.13;;;;;;;3.78;100.00;102441.13;5099934;28;20058;-62
2021/03/22 00:44:12;;;;;;;22.02;5.82;;;;;;;3.83;100.00;102440.06;5099679;28;20454;-62
2021/03/22 00:46:38;;;;;;;17.63;5.28;;;;;;;3.79;100.00;102427.78;5099905;28;20378;-62
2021/03/22 00:49:04;;;;;;;21.98;5.18;;;;;;;3.76;100.00;102433.22;5100517;28;20082;-63
2021/03/22 00:51:31;;;;;;;30.45;6.03;;;;;;;3.77;100.00;102429.63;5100032;28;20055;-62
2021/03/22 00:53:57;;;;;;;22.30;5.82;;;;;;;3.70;100.00;102425.44;5100904;28;20117;-62
2021/03/22 00:56:23;;;;;;;30.77;6.32;;;;;;;3.67;100.00;102418.41;5099186;28;20439;-62
2021/03/22 00:58:49;;;;;;;25.98;5.72;;;;;;;3.75;100.00;102414.63;5100581;28;20056;-62
2021/03/22 01:01:15;;;;;;;28.42;6.72;;;;;;;3.71;100.00;102419.19;5098761;27;20048;-62
2021/03/22 01:03:41;;;;;;;17.30;5.18;;;;;;;3.73;100.00;102412.00;5100947;28;20056;-62
2021/03/22 01:06:08;;;;;;;23.50;6.18;;;;;;;3.70;100.00;102406.78;5100516;28;20058;-62
2021/03/22 01:08:38;;;;;;;23.08;6.20;;;;;;;3.74;100.00;102413.75;5098920;28;20046;-62
2021/03/22 01:11:05;;;;;;;;;;;;;;;3.81;100.00;102417.94;5098918;28;20036;-62
2021/03/22 01:13:34;;;;;;;16.77;6.07;;;;;;;3.88;100.00;102415.06;5098551;28;19920;-62
2021/03/22 01:16:01;;;;;;;25.10;6.80;;;;;;;3.82;100.00;102419.66;5098777;28;20085;-62
2021/03/22 01:18:30;;;;;;;19.52;5.78;;;;;;;3.81;100.00;102417.94;5100275;28;20043;-62
2021/03/22 01:21:00;;;;;;;26.67;6.53;;;;;;;3.80;100.00;102410.88;5100233;28;20051;-62
2021/03/22 01:23:26;;;;;;;25.20;6.15;;;;;;;3.83;100.00;102405.44;5108775;22;20071;-63
2021/03/22 01:25:53;;;;;;;27.00;6.50;;;;;;;3.84;100.00;102415.19;5077457;28;20496;-62
2021/03/22 01:28:20;;;;;;;24.42;6.72;;;;;;;3.95;100.00;102401.47;5079798;28;20493;-61
2021/03/22 01:30:49;;;;;;;23.30;7.78;;;;;;;4.02;100.00;102399.47;5078345;28;20603;-61
2021/03/22 01:33:17;;;;;;;23.50;7.68;;;;;;;4.06;100.00;102395.75;5078849;28;20409;-61
2021/03/22 01:35:44;;;;;;;33.67;7.95;;;;;;;4.13;100.00;102389.25;5079669;28;20435;-62
2021/03/22 01:38:10;;;;;;;30.00;7.95;;;;;;;4.14;100.00;102396.34;5079661;28;20048;-61
2021/03/22 01:40:48;;;;;;;29.90;8.73;;;;;;;4.25;100.00;102381.75;5078541;28;20528;-62
2021/03/22 01:43:26;;;;;;;24.13;7.22;;;;;;;4.20;100.00;102380.13;5073010;28;20048;-64
2021/03/22 01:45:52;;;;;;;25.70;7.88;;;;;;;4.18;100.00;102381.97;5078524;28;20032;-62
2021/03/22 01:48:19;;;;;;;25.00;7.43;;;;;;;4.25;100.00;102381.75;5079089;28;20882;-61
2021/03/22 01:50:45;;;;;;;33.35;8.98;;;;;;;4.33;100.00;102385.88;5079611;28;20051;-62
2021/03/22 01:53:12;;;;;;;31.20;8.60;;;;;;;4.24;100.00;102382.66;5079212;28;20047;-64
2021/03/22 01:55:37;;;;;;;34.33;8.32;;;;;;;4.25;100.00;102379.94;5079077;28;20056;-62
2021/03/22 01:58:03;;;;;;;29.83;8.02;;;;;;;4.26;100.00;102375.50;5077242;28;20102;-62
2021/03/22 02:00:32;;;;;;;22.90;7.68;;;;;;;4.19;100.00;102372.19;5077857;28;20037;-62
2021/03/22 02:03:01;;;;;;;37.35;9.05;;;;;;;4.24;100.00;102372.00;5070948;28;20171;-61
2021/03/22 02:05:30;;;;;;;25.67;8.40;;;;;;;4.23;100.00;102363.16;5079482;28;20045;-61
2021/03/22 02:08:03;;;;;;;26.33;8.60;;;;;;;4.25;100.00;102366.63;5079846;28;20053;-61
2021/03/22 02:10:29;;;;;;;27.58;7.57;;;;;;;4.31;100.00;102357.53;5078160;28;20101;-62
2021/03/22 02:12:55;;;;;;;28.92;7.78;;;;;;;4.32;100.00;102359.25;5080017;28;20067;-62
2021/03/22 02:15:21;;;;;;;35.75;9.25;;;;;;;4.39;100.00;102358.09;5077725;28;20056;-63
2021/03/22 02:18:04;;;;;;;34.97;8.57;;;;;;;4.30;100.00;102355.78;5079248;28;20056;-62
2021/03/22 02:21:18;;;;;;;29.20;8.95;;;;;;;4.30;100.00;102359.31;5078351;28;20145;-61
2021/03/22 02:24:19;;;;;;;28.77;8.32;;;;;;;4.35;100.00;102360.00;5077244;28;20044;-61
2021/03/22 02:27:32;;;;;;;32.33;8.80;;;;;;;4.44;100.00;102356.13;5038217;28;20044;-62
2021/03/22 02:30:21;;;;;;;26.17;8.48;;;;;;;4.41;100.00;102353.56;5075358;28;20086;-62
2021/03/22 02:33:22;;;;;;;30.15;8.85;;;;;;;4.37;100.00;102357.28;5078677;28;20064;-62
2021/03/22 02:35:54;;;;;;;33.03;8.60;;;;;;;4.49;100.00;102354.16;5076162;28;20036;-62
2021/03/22 02:38:24;;;;;;;35.67;9.18;;;;;;;4.50;100.00;102355.88;5078373;28;20611;-62
2021/03/22 02:40:54;;;;;;;34.97;8.48;;;;;;;4.50;100.00;102358.53;5078729;28;20048;-61
2021/03/22 02:43:21;;;;;;;26.67;8.43;;;;;;;4.54;100.00;102352.16;5078236;28;20052;-62
2021/03/22 02:45:47;;;;;;;28.63;8.23;;;;;;;4.50;100.00;102347.88;5078978;28;20056;-61
2021/03/22 02:48:17;;;;;;;29.77;7.35;;;;;;;4.51;100.00;102354.94;5078184;28;20052;-62
2021/03/22 02:50:45;;;;;;;37.97;7.50;;;;;;;4.54;100.00;102362.81;5079860;28;20049;-62
2021/03/22 02:53:49;;;;;;;32.40;8.70;;;;;;;4.51;100.00;102365.63;5081879;28;20060;-62
2021/03/22 02:56:30;;;;;;;31.02;7.13;;;;;;;4.52;100.00;102355.81;5076439;28;20562;-62
2021/03/22 02:59:03;;;;;;;27.38;6.78;;;;;;;4.55;100.00;102353.91;5082060;28;20098;-62
2021/03/22 03:01:34;;;;;;;26.40;6.35;;;;;;;4.59;100.00;102353.78;5081240;28;20048;-62
2021/03/22 03:04:01;;;;;;;24.80;6.68;;;;;;;4.61;100.00;102351.91;5082111;28;20416;-63
2021/03/22 03:06:44;;;;;;;24.90;6.22;;;;;;;4.65;100.00;102354.44;5082620;28;20048;-63
2021/03/22 03:09:10;;;;;;;18.92;6.68;;;;;;;4.72;100.00;102352.38;5081321;28;20444;-61
2021/03/22 03:11:38;;;;;;;30.88;6.55;;;;;;;4.70;100.00;102346.25;5081620;28;20059;-62
2021/03/22 03:14:04;;;;;;;24.58;5.90;;;;;;;4.74;100.00;102353.16;5082015;28;20049;-62
2021/03/22 03:16:30;;;;;;;26.42;4.95;;;;;;;4.64;100.00;102349.13;5081748;28;20048;-63
2021/03/22 03:18:56;;;;;;;18.90;5.90;;;;;;;4.70;100.00;102362.25;5082238;28;20055;-62
2021/03/22 03:21:22;;;;;;;27.00;5.70;;;;;;;4.73;100.00;102352.31;5081232;28;20052;-64
2021/03/22 03:23:48;;;;;;;19.70;5.20;;;;;;;4.79;100.00;102356.53;5082113;28;20089;-62
2021/03/22 03:26:14;;;;;;;21.58;5.72;;;;;;;4.78;100.00;102348.59;5081657;28;20055;-62
2021/03/22 03:28:40;;;;;;;27.35;6.13;;;;;;;4.77;100.00;102357.50;5081337;28;20052;-62
2021/03/22 03:31:06;;;;;;;26.90;6.25;;;;;;;4.84;100.00;102359.88;5077966;28;20058;-64
2021/03/22 03:33:32;;;;;;;23.70;6.45;;;;;;;4.78;100.00;102364.59;5081385;28;20044;-63
2021/03/22 03:35:58;;;;;;;28.30;6.38;;;;;;;4.78;100.00;102360.13;5082337;28;20132;-61
2021/03/22 03:38:24;;;;;;;24.23;5.18;;;;;;;4.80;100.00;102358.28;5078066;28;20048;-61
2021/03/22 03:40:50;;;;;;;22.23;4.50;;;;;;;4.83;100.00;102360.81;5080213;28;20066;-61
2021/03/22 03:43:17;;;;;;;22.00;4.97;;;;;;;4.72;100.00;102363.03;5080667;28;20489;-62
2021/03/22 03:45:46;;;;;;;22.27;4.85;;;;;;;4.76;100.00;102353.13;5082035;28;20071;-61
2021/03/22 03:48:14;;;;;;;23.00;4.70;;;;;;;4.73;100.00;102367.44;5080283;28;20157;-63
2021/03/22 03:50:41;;;;;;;22.08;4.53;;;;;;;4.67;100.00;102367.69;5080976;28;20044;-62
2021/03/22 03:53:09;;;;;;;27.52;4.68;;;;;;;4.64;100.00;102368.69;5074419;28;20071;-61
2021/03/22 03:55:35;;;;;;;25.38;5.82;;;;;;;4.70;100.00;102370.25;5081236;28;20129;-63
2021/03/22 03:58:01;;;;;;;23.23;5.78;;;;;;;4.72;100.00;102360.38;5081344;28;20051;-61
2021/03/22 04:00:30;;;;;;;23.98;5.00;;;;;;;4.63;100.00;102361.59;5081251;28;20048;-62
2021/03/22 04:02:57;;;;;;;18.42;4.68;;;;;;;4.59;100.00;102375.97;5079536;28;20056;-62
2021/03/22 04:05:26;;;;;;;21.50;4.93;;;;;;;4.65;100.00;102374.88;5081246;28;20055;-62
2021/03/22 04:07:52;;;;;;;24.30;5.47;;;;;;;4.59;100.00;102369.78;5080660;28;20044;-63
2021/03/22 04:10:18;;;;;;;24.10;4.90;;;;;;;4.60;100.00;102367.06;5080177;28;20416;-62
2021/03/22 04:12:45;;;;;;;20.05;4.30;;;;;;;4.61;100.00;102367.91;5079725;28;20044;-63
2021/03/22 04:15:14;;;;;;;27.67;5.22;;;;;;;4.65;100.00;102372.22;5080153;28;20049;-62
2021/03/22 04:17:41;;;;;;;17.92;3.92;;;;;;;4.65;100.00;102378.44;5080716;28;20059;-62
2021/03/22 04:20:09;;;;;;;22.70;4.28;;;;;;;4.62;100.00;102375.84;5080283;28;20048;-62
2021/03/22 04:22:35;;;;;;;25.10;4.57;;;;;;;4.64;100.00;102373.13;5081386;28;20185;-63
2021/03/22 04:25:01;;;;;;;22.50;4.72;;;;;;;4.66;100.00;102385.47;5081321;28;20061;-62
2021/03/22 04:27:27;;;;;;;25.80;4.25;;;;;;;4.72;100.00;102393.22;5080166;28;20063;-62
2021/03/22 04:29:53;;;;;;;30.73;5.25;;;;;;;4.72;100.00;102389.72;5080637;28;20039;-62
2021/03/22 04:32:19;;;;;;;20.67;4.18;;;;;;;4.65;100.00;102380.22;5080328;28;20044;-62
2021/03/22 04:34:45;;;;;;;16.73;4.25;;;;;;;4.72;100.00;102381.72;5081203;28;20056;-62
2021/03/22 04:37:12;;;;;;;24.27;4.18;;;;;;;4.70;100.00;102375.56;5075014;28;20080;-63
2021/03/22 04:39:38;;;;;;;23.60;3.85;;;;;;;4.60;100.00;102383.06;5077797;28;20102;-62
2021/03/22 04:42:05;;;;;;;25.60;4.47;;;;;;;4.55;100.00;102388.56;5078762;28;20099;-61
2021/03/22 04:44:31;;;;;;;21.40;4.53;;;;;;;4.60;100.00;102382.19;5080352;28;20098;-63
2021/03/22 04:46:57;;;;;;;21.50;3.60;;;;;;;4.56;100.00;102382.31;5080082;28;20048;-61
2021/03/22 04:49:22;;;;;;;26.15;4.47;;;;;;;4.55;100.00;102380.56;5079628;28;20121;-62
2021/03/22 04:51:48;;;;;;;23.63;4.13;;;;;;;4.56;100.00;102385.00;5081118;28;20041;-62
2021/03/22 04:54:16;;;;;;;23.95;4.82;;;;;;;4.59;100.00;102383.13;5080714;28;20417;-62
2021/03/22 04:56:42;;;;;;;19.70;4.13;;;;;;;4.54;100.00;102383.31;5078999;28;20060;-63
2021/03/22 04:59:08;;;;;;;17.38;4.10;;;;;;;4.49;100.00;102391.47;5079422;28;20071;-62
2021/03/22 05:01:33;;;;;;;26.55;4.82;;;;;;;4.52;100.00;102391.38;5079522;28;20056;-62
2021/03/22 05:03:59;;;;;;;14.95;4.53;;;;;;;4.52;100.00;102399.38;5080186;28;20058;-63
2021/03/22 05:06:25;;;;;;;27.63;4.80;;;;;;;4.44;100.00;102393.44;5079551;28;20051;-62
2021/03/22 05:08:51;;;;;;;20.63;4.40;;;;;;;4.44;100.00;102393.44;5079881;28;20071;-62
2021/03/22 05:11:18;;;;;;;16.33;4.18;;;;;;;4.47;100.00;102388.00;5077391;28;20048;-64
2021/03/22 05:13:44;;;;;;;25.35;5.05;;;;;;;4.54;100.00;102388.63;5079087;28;20157;-62
2021/03/22 05:16:12;;;;;;;21.92;4.22;;;;;;;4.53;100.00;102395.78;5079649;28;20055;-64
2021/03/22 05:18:38;;;;;;;23.20;4.85;;;;;;;4.51;100.00;102388.75;5080137;28;20455;-64
2021/03/22 05:21:06;;;;;;;26.42;5.55;;;;;;;4.41;100.00;102388.22;5078755;28;20045;-62
2021/03/22 05:23:34;;;;;;;19.08;5.63;;;;;;;4.47;100.00;102403.97;5080565;28;20444;-63
2021/03/22 05:26:00;;;;;;;25.10;4.88;;;;;;;4.53;100.00;102398.44;5080648;28;20135;-62
2021/03/22 05:28:29;;;;;;;21.25;4.28;;;;;;;4.45;100.00;102408.53;5079980;28;21218;-64
2021/03/22 05:30:56;;;;;;;24.85;4.28;;;;;;;4.51;100.00;102410.94;5076245;28;20057;-62
2021/03/22 05:33:23;;;;;;;20.67;4.38;;;;;;;4.48;100.00;102404.88;5074095;28;20067;-62
2021/03/22 05:35:51;;;;;;;12.95;3.65;;;;;;;4.44;100.00;102401.44;5079222;28;20126;-62
2021/03/22 05:38:17;;;;;;;21.50;3.90;;;;;;;4.41;100.00;102406.88;5079377;28;20063;-62
2021/03/22 05:40:45;;;;;;;19.25;4.57;;;;;;;4.39;100.00;102412.28;5078081;28;20073;-62
2021/03/22 05:43:26;;;;;;;22.35;4.82;;;;;;;4.37;100.00;102424.81;5079024;28;20048;-61
2021/03/22 05:46:06;;;;;;;13.38;3.90;;;;;;;4.36;100.00;102422.22;5079311;28;20493;-64
2021/03/22 05:48:52;;;;;;;16.17;3.70;;;;;;;4.46;100.00;102425.38;5080128;28;20076;-61
2021/03/22 05:51:43;;;;;;;17.15;3.63;;;;;;;4.36;100.00;102432.88;5072226;28;20405;-62
2021/03/22 05:54:33;;;;;;;17.77;3.50;;;;;;;4.37;100.00;102431.91;5072901;28;20052;-62
2021/03/22 05:57:05;;;;;;;21.38;4.40;;;;;;;4.37;100.00;102434.59;5081000;28;20489;-63
2021/03/22 05:59:39;;;;;;;15.00;3.40;;;;;;;4.35;100.00;102431.13;5077963;28;20114;-62
2021/03/22 06:02:11;;;;;;;16.10;3.42;;;;;;;4.42;100.00;102432.63;5079383;28;20047;-62
2021/03/22 06:04:42;;;;;;;13.35;4.10;;;;;;;4.42;100.00;102440.63;5079198;28;20048;-62
2021/03/22 06:07:12;;;;;;;17.50;4.30;;;;;;;4.39;100.00;102438.94;5081267;28;20080;-61
2021/03/22 06:12:58;;;;;;;11.15;3.15;;;;;;;4.48;100.00;102427.06;5049971;22;20132;-62
2021/03/22 06:15:30;;;;;;;12.57;3.33;;;;;;;4.54;100.00;102431.31;5039064;28;20056;-62
2021/03/22 06:18:01;;;;;;;16.70;3.50;;;;;;;4.53;100.00;102434.88;5041396;28;20063;-63
2021/03/22 06:20:32;;;;;;;18.88;3.55;;;;;;;4.61;100.00;102434.59;5038634;28;20049;-62
2021/03/22 06:23:03;;;;;;;18.70;3.60;;;;;;;4.56;100.00;102434.75;5040418;28;20049;-62
2021/03/22 06:25:31;;;;;;;27.25;4.10;;;;;;;4.36;100.00;102438.19;5040221;28;20045;-60
2021/03/22 06:28:05;;;;;;;27.23;4.05;;;;;;;4.35;100.00;102447.13;5044505;28;20072;-63
2021/03/22 06:30:31;;;;;;;13.05;3.40;;;;;;;4.35;100.00;102444.44;5044732;28;20046;-61
2021/03/22 06:33:01;;;;;;;24.42;4.80;;;;;;;4.39;100.00;102446.09;5041274;28;20057;-60
2021/03/22 06:35:31;;;;;;;;;;;;;;;4.43;100.00;102439.72;5043726;28;20052;-59
2021/03/22 06:37:57;;;;;;;17.35;3.97;;;;;;;4.53;100.00;102443.78;5042558;28;19928;-62
2021/03/22 06:40:32;;;;;;;12.50;3.63;;;;;;;4.59;100.00;102449.78;5043840;28;20049;-62
2021/03/22 06:43:08;;;;;;;14.98;3.67;;;;;;;4.69;100.00;102453.84;5042975;28;23244;-61
2021/03/22 06:45:38;;;;;;;13.82;4.03;;;;;;;4.71;100.00;102452.88;5044321;28;20095;-61
2021/03/22 06:48:23;;;;;;;19.35;3.80;;;;;;;4.84;100.00;102445.22;5043689;28;20110;-62
2021/03/22 06:50:51;;;;;;;19.45;3.75;;;;;;;4.83;100.00;102442.63;5043352;28;20050;-61
2021/03/22 06:53:36;;;;;;;15.90;3.50;;;;;;;4.88;100.00;102451.34;5042954;28;20096;-61
2021/03/22 06:56:23;;;;;;;12.65;3.20;;;;;;;4.80;100.00;102464.09;5041993;28;20479;-61
2021/03/22 06:59:00;;;;;;;14.32;3.40;;;;;;;4.90;100.00;102455.69;5043529;28;20506;-62
2021/03/22 07:01:29;;;;;;;15.98;3.88;;;;;;;4.92;100.00;102452.97;5041995;28;20056;-61
2021/03/22 07:04:15;;;;;;;16.52;2.95;;;;;;;4.95;100.00;102451.94;5043917;28;20081;-61
2021/03/22 07:06:41;;;;;;;13.43;3.25;;;;;;;4.97;100.00;102450.97;5043209;28;20064;-64
2021/03/22 07:09:07;;;;;;;12.35;3.45;;;;;;;5.08;100.00;102453.22;5042667;28;20498;-61
2021/03/22 07:11:49;;;;;;;15.77;3.22;;;;;;;5.13;100.00;102469.91;5047034;28;20124;-62
2021/03/22 07:14:23;;;;;;;13.60;3.80;;;;;;;5.12;100.00;102465.50;5062808;28;20056;-62
2021/03/22 07:17:01;;;;;;;13.02;2.80;;;;;;;5.15;100.00;102464.50;5061810;28;20482;-61
2021/03/22 07:19:28;;;;;;;9.75;3.03;;;;;;;5.17;100.00;102468.00;5061182;28;20053;-62
2021/03/22 07:21:57;;;;;;;12.43;2.80;;;;;;;5.17;100.00;102462.66;5058036;28;20053;-62
2021/03/22 07:24:33;;;;;;;11.60;2.75;;;;;;;5.36;100.00;102460.09;5051577;28;20068;-62
2021/03/22 07:27:13;;;;;;;10.40;3.05;;;;;;;5.24;100.00;102459.69;5060651;28;20144;-61
2021/03/22 07:30:15;;;;;;;13.43;2.55;;;;;;;5.40;100.00;102456.38;5061969;28;20413;-62
2021/03/22 07:33:03;;;;;;;56.70;7.20;;;;;;;5.42;100.00;102465.22;5061789;28;20036;-62
2021/03/22 07:36:08;;;;;;;11.95;2.72;;;;;;;5.34;100.00;102464.63;5060548;28;20044;-62
2021/03/22 07:38:47;;;;;;;31.85;4.93;;;;;;;5.26;100.00;102465.81;5061209;28;20056;-64
2021/03/22 07:41:17;;;;;;;;;;;;;;;5.25;100.00;102466.75;5060888;28;20056;-62
2021/03/22 07:43:58;;;;;;;3.42;1.48;;;;;;;5.26;100.00;102471.16;5062659;28;19932;-65
2021/03/22 07:46:42;;;;;;;7.38;1.73;;;;;;;5.28;100.00;102462.22;5061104;28;20057;-62
2021/03/22 07:49:29;;;;;;;10.82;2.78;;;;;;;5.37;100.00;102465.38;5062255;28;20067;-62
2021/03/22 07:52:14;;;;;;;7.72;1.80;;;;;;;5.29;100.00;102472.84;5062871;28;20048;-63
2021/03/22 07:54:51;;;;;;;8.13;1.60;;;;;;;5.19;100.00;102479.47;5062968;28;20040;-61
2021/03/22 07:57:35;;;;;;;9.45;1.67;;;;;;;5.02;100.00;102474.78;5061013;28;20057;-62
2021/03/22 08:00:21;;;;;;;4.60;1.60;;;;;;;5.10;100.00;102472.72;5061368;28;20041;-62
2021/03/22 08:03:13;;;;;;;2.95;1.15;;;;;;;5.22;100.00;102460.66;5062543;28;20040;-63
2021/03/22 08:05:51;;;;;;;5.15;1.50;;;;;;;5.14;100.00;102460.97;5061141;28;20060;-62
2021/03/22 08:08:25;;;;;;;8.00;1.10;;;;;;;5.33;100.00;102460.22;5061187;28;20417;-64
2021/03/22 08:11:00;;;;;;;3.33;1.30;;;;;;;5.49;100.00;102458.69;5061582;28;20072;-62
2021/03/22 08:13:52;;;;;;;1.88;0.90;;;;;;;5.65;100.00;102464.22;5059963;28;20485;-63
2021/03/22 08:16:35;;;;;;;9.50;1.30;;;;;;;5.63;100.00;102459.91;5061140;28;20067;-65
2021/03/22 08:19:12;;;;;;;3.30;1.13;;;;;;;5.72;100.00;102472.88;5060012;28;20048;-63
2021/03/22 08:21:43;;;;;;;3.92;1.10;;;;;;;5.81;100.00;102475.13;5060717;28;20049;-62
2021/03/22 08:24:18;;;;;;;5.90;1.00;;;;;;;5.95;100.00;102472.75;5060331;28;20057;-62
2021/03/22 08:26:54;;;;;;;3.15;1.10;;;;;;;6.19;100.00;102475.31;5059675;28;20075;-62
2021/03/22 08:29:23;;;;;;;1.98;1.00;;;;;;;6.32;100.00;102478.31;5056456;28;20049;-62
2021/03/22 08:31:57;;;;;;;4.88;1.13;;;;;;;6.33;100.00;102472.03;5059789;28;20048;-62
2021/03/22 08:34:33;;;;;;;2.55;1.20;;;;;;;6.10;100.00;102465.03;5059302;28;20094;-64
2021/03/22 08:37:05;;;;;;;3.53;1.20;;;;;;;6.31;100.00;102480.09;5063258;28;20405;-62
2021/03/22 08:39:39;;;;;;;4.57;1.77;;;;;;;6.62;100.00;102473.38;5061005;28;20116;-62
2021/03/22 08:42:12;;;;;;;5.70;1.58;;;;;;;6.64;100.00;102481.31;5057561;28;20102;-63
2021/03/22 08:44:42;;;;;;;4.82;1.30;;;;;;;6.52;100.00;102477.41;5059173;28;20053;-62
2021/03/22 08:47:27;;;;;;;2.40;1.33;;;;;;;6.69;100.00;102484.66;5061134;28;20106;-62
2021/03/22 08:49:56;;;;;;;5.30;1.75;;;;;;;6.69;100.00;102483.81;5059702;28;20048;-63
2021/03/22 08:52:28;;;;;;;6.47;1.42;;;;;;;6.79;100.00;102485.13;5058598;28;20065;-64
2021/03/22 08:55:06;;;;;;;2.40;1.27;;;;;;;6.81;100.00;102486.75;5060674;28;20060;-64
2021/03/22 08:57:38;;;;;;;2.75;1.10;;;;;;;6.90;100.00;102488.13;5060338;28;20090;-62
2021/03/22 09:00:25;;;;;;;5.03;1.10;;;;;;;7.09;100.00;102477.44;5059192;28;20056;-62
2021/03/22 09:02:55;;;;;;;4.05;1.45;;;;;;;6.84;100.00;102483.09;5056143;28;20056;-62
2021/03/22 09:05:23;;;;;;;3.20;1.00;;;;;;;6.88;100.00;102482.00;5057506;28;20102;-62
2021/03/22 09:07:50;;;;;;;3.17;0.90;;;;;;;6.72;100.00;102478.31;5062046;28;20071;-62
2021/03/22 09:10:36;;;;;;;3.72;0.90;;;;;;;6.57;100.00;102485.25;5060179;28;20056;-62
2021/03/22 09:13:27;;;;;;;2.60;0.98;;;;;;;6.31;100.00;102490.81;5055140;28;20052;-64
2021/03/22 09:16:34;;;;;;;2.83;1.10;;;;;;;6.48;100.00;102487.38;5060022;28;20101;-62
2021/03/22 09:19:29;;;;;;;2.20;1.00;;;;;;;6.54;100.00;102486.25;5057120;28;20068;-62
2021/03/22 09:22:47;;;;;;;3.72;1.02;;;;;;;6.63;100.00;102488.50;5052254;28;20044;-62
2021/03/22 09:25:29;;;;;;;4.93;1.60;;;;;;;7.31;100.00;102490.66;5057609;28;20044;-64
2021/03/22 09:28:20;;;;;;;3.70;0.90;;;;;;;7.59;100.00;102491.97;5057773;28;20044;-62
2021/03/22 09:30:54;;;;;;;4.75;1.05;;;;;;;7.31;100.00;102497.81;5058766;28;20427;-61
2021/03/22 09:33:53;;;;;;;4.13;1.00;;;;;;;6.79;100.00;102493.16;5059898;28;20048;-63
2021/03/22 09:36:30;;;;;;;1.65;1.00;;;;;;;6.66;100.00;102498.19;5058828;28;20048;-62
2021/03/22 09:38:57;;;;;;;2.08;0.90;;;;;;;6.62;100.00;102493.91;5058845;28;20044;-63
2021/03/22 09:41:56;;;;;;;2.35;1.20;;;;;;;6.79;100.00;102495.81;5058194;28;20095;-63
2021/03/22 09:44:26;;;;;;;2.67;1.00;;;;;;;6.90;100.00;102496.16;5060027;28;20052;-63
2021/03/22 09:47:05;;;;;;;2.92;1.10;;;;;;;6.83;100.00;102500.06;5060575;28;20391;-63
2021/03/22 09:49:33;;;;;;;5.35;1.38;;;;;;;7.05;100.00;102497.25;5059189;28;20429;-65
2021/03/22 09:52:16;;;;;;;3.35;0.98;;;;;;;7.24;100.00;102496.38;5058292;28;20067;-63
2021/03/22 09:54:44;;;;;;;2.83;1.05;;;;;;;7.42;100.00;102497.28;5060094;28;20036;-63
2021/03/22 09:57:26;;;;;;;4.45;1.33;;;;;;;7.34;100.00;102498.53;5059000;28;20118;-63
2021/03/22 10:02:50;;;;;;;4.88;1.00;;;;;;;7.58;100.00;102508.97;5078419;22;20057;-64
2021/03/22 10:05:20;;;;;;;3.63;1.10;;;;;;;7.62;100.00;102505.22;5061405;28;20060;-65
2021/03/22 10:07:52;;;;;;;2.70;0.85;;;;;;;7.52;100.00;102506.63;5059915;28;20106;-65
2021/03/22 10:10:23;;;;;;;2.75;1.00;;;;;;;7.25;100.00;102507.03;5061176;28;20051;-63
2021/03/22 10:12:53;;;;;;;3.25;1.08;;;;;;;7.12;100.00;102516.59;5061499;28;20056;-64
2021/03/22 10:15:24;;;;;;;4.53;1.20;;;;;;;6.75;100.00;102519.16;5061227;28;20044;-63
2021/03/22 10:18:04;;;;;;;3.00;1.00;;;;;;;6.69;100.00;102515.91;5059411;28;20060;-63
2021/03/22 10:20:36;;;;;;;2.10;1.00;;;;;;;6.65;100.00;102520.53;5061269;28;20052;-63
2021/03/22 10:23:11;;;;;;;3.17;1.25;;;;;;;6.78;100.00;102519.03;5059371;28;20060;-64
2021/03/22 10:25:42;;;;;;;7.07;1.05;;;;;;;6.39;100.00;102519.00;5060333;28;20055;-63
2021/03/22 10:28:20;;;;;;;2.75;1.17;;;;;;;6.74;100.00;102529.94;5055711;28;20048;-63
2021/03/22 10:30:59;;;;;;;5.38;1.10;;;;;;;6.94;100.00;102529.03;5060522;28;20045;-65
2021/03/22 10:33:27;;;;;;;5.55;1.40;;;;;;;7.28;100.00;102522.09;5060037;28;20119;-63
2021/03/22 10:35:56;;;;;;;1.67;0.90;;;;;;;7.44;100.00;102520.41;5061935;28;20080;-62
2021/03/22 10:38:26;;;;;;;3.22;1.23;;;;;;;7.68;100.00;102523.66;5058503;28;20056;-62
2021/03/22 10:40:53;;;;;;;3.88;1.25;;;;;;;7.84;100.00;102529.13;5059830;28;20512;-62
2021/03/22 10:43:26;;;;;;;1.60;0.88;;;;;;;7.77;100.00;102518.81;5059487;28;20095;-62
2021/03/22 10:45:52;;;;;;;4.70;1.40;;;;;;;7.98;100.00;102520.41;5058192;28;20596;-62
2021/03/22 10:48:24;;;;;;;3.72;0.95;;;;;;;7.98;100.00;102516.84;5058881;28;20048;-63
2021/03/22 10:51:20;;;;;;;2.97;1.10;;;;;;;7.97;100.00;102517.81;5057316;28;20055;-64
2021/03/22 10:53:54;;;;;;;4.18;1.13;;;;;;;7.83;100.00;102518.47;5052901;28;20041;-62
2021/03/22 10:56:25;;;;;;;4.45;1.08;;;;;;;7.87;100.00;102517.41;5060556;28;20045;-61
2021/03/22 10:58:51;;;;;;;4.78;0.90;;;;;;;7.83;100.00;102522.06;5063433;28;20414;-63
2021/03/22 11:01:19;;;;;;;3.92;1.00;;;;;;;7.69;100.00;102512.00;5061918;28;20074;-63
2021/03/22 11:03:49;;;;;;;0.60;0.60;;;;;;;7.68;100.00;102512.94;5059609;28;20111;-63
2021/03/22 11:06:30;;;;;;;9.57;1.38;;;;;;;7.29;100.00;102513.13;5057393;28;20055;-62
2021/03/22 11:08:59;;;;;;;2.40;0.93;;;;;;;7.56;100.00;102510.88;5060848;28;20049;-64
2021/03/22 11:11:30;;;;;;;2.88;0.80;;;;;;;7.83;100.00;102515.81;5062323;28;20445;-62
2021/03/22 11:14:00;;;;;;;4.07;0.93;;;;;;;7.91;100.00;102515.44;5062432;28;20057;-62
2021/03/22 11:16:29;;;;;;;5.10;1.27;;;;;;;7.91;100.00;102505.56;5061971;28;20147;-63
2021/03/22 11:18:55;;;;;;;1.10;0.80;;;;;;;8.21;100.00;102511.16;5060085;28;20133;-64
2021/03/22 11:21:25;;;;;;;2.42;1.13;;;;;;;8.46;100.00;102507.22;5058928;28;20091;-62
2021/03/22 11:23:54;;;;;;;3.40;1.00;;;;;;;8.28;100.00;102511.72;5060017;28;20078;-62
2021/03/22 11:26:25;;;;;;;2.67;1.23;;;;;;;8.32;100.00;102512.41;5061140;28;20477;-63
2021/03/22 11:28:51;;;;;;;4.47;0.70;;;;;;;8.28;100.00;102522.44;5060471;28;20102;-64
2021/03/22 11:31:23;;;;;;;2.92;0.75;;;;;;;8.37;100.00;102521.09;5058986;28;20049;-64
2021/03/22 11:34:05;;;;;;;3.33;1.20;;;;;;;8.47;100.00;102524.19;5059213;28;20484;-62
2021/03/22 11:36:34;;;;;;;3.05;1.08;;;;;;;8.44;100.00;102524.34;5060414;28;20047;-62
2021/03/22 11:39:10;;;;;;;2.53;1.10;;;;;;;8.53;100.00;102526.56;5060520;28;20045;-63
2021/03/22 11:41:39;;;;;;;2.78;0.95;;;;;;;8.65;100.00;102523.19;5058710;28;20044;-63
2021/03/22 11:44:19;;;;;;;1.58;0.73;;;;;;;8.72;100.00;102527.28;5059700;28;20056;-62
2021/03/22 11:46:48;;;;;;;1.70;1.00;;;;;;;8.79;100.00;102527.84;5060258;28;20049;-65
2021/03/22 11:49:38;;;;;;;1.88;1.10;;;;;;;9.18;100.00;102525.72;5060992;28;20055;-64
2021/03/22 11:52:17;;;;;;;1.67;0.90;;;;;;;8.99;100.00;102532.09;5059311;28;20057;-64